sensor_id;sensor_type;location;lat;lon;timestamp;pressure;altitude;pressure_sealevel;temperature;humidity
5814;BME280;2933;52.302;8.134;2023-01-15T00:02:43;98628.03;;;5.65;100.00
5814;BME280;2933;52.302;8.134;2023-01-15T00:07:46;98605.47;;;5.67;100.00
5814;BME280;2933;52.302;8.134;2023-01-15T00:12:47;98607.13;;;5.55;100.00
5814;BME280;2933;52.302;8.134;2023-01-15T00:17:49;98611.59;;;5.53;100.00
5814;BME280;2933;52.302;8.134;2023-01-15T00:22:52;98617.78;;;5.63;100.00
5814;BME280;2933;52.302;8.134;2023-01-15T00:27:53;98640.59;;;5.58;100.00
5814;BME280;2933;52.302;8.134;2023-01-15T00:32:56;98641.00;;;5.65;100.00
5814;BME280;2933;52.302;8.134;2023-01-15T00:37:59;98632.84;;;5.58;100.00
5814;BME280;2933;52.302;8.134;2023-01-15T00:43:00;98598.91;;;5.37;100.00
5814;BME280;2933;52.302;8.134;2023-01-15T00:48:02;98648.38;;;5.58;100.00
5814;BME280;2933;52.302;8.134;2023-01-15T00:53:05;98641.19;;;5.62;100.00
5814;BME280;2933;52.302;8.134;2023-01-15T00:58:06;98645.78;;;5.58;100.00
5814;BME280;2933;52.302;8.134;2023-01-15T01:03:08;98638.84;;;5.59;100.00
5814;BME280;2933;52.302;8.134;2023-01-15T01:08:11;98652.16;;;5.65;100.00
5814;BME280;2933;52.302;8.134;2023-01-15T01:13:13;98648.34;;;5.71;100.00
5814;BME280;2933;52.302;8.134;2023-01-15T01:18:14;98640.25;;;5.76;100.00
5814;BME280;2933;52.302;8.134;2023-01-15T01:23:17;98644.31;;;5.54;100.00
5814;BME280;2933;52.302;8.134;2023-01-15T01:28:19;98636.78;;;5.51;100.00
5814;BME280;2933;52.302;8.134;2023-01-15T01:33:21;98653.84;;;5.66;100.00
5814;BME280;2933;52.302;8.134;2023-01-15T01:38:24;98674.16;;;5.60;100.00
5814;BME280;2933;52.302;8.134;2023-01-15T01:43:27;98678.31;;;5.62;100.00
5814;BME280;2933;52.302;8.134;2023-01-15T01:48:32;98660.94;;;5.26;100.00
5814;BME280;2933;52.302;8.134;2023-01-15T01:53:36;98680.53;;;5.30;100.00
5814;BME280;2933;52.302;8.134;2023-01-15T01:58:38;98697.91;;;5.41;100.00
5814;BME280;2933;52.302;8.134;2023-01-15T02:03:40;98720.47;;;5.52;100.00
5814;BME280;2933;52.302;8.134;2023-01-15T02:08:43;98710.75;;;5.42;100.00
5814;BME280;2933;52.302;8.134;2023-01-15T02:13:49;98658.25;;;5.14;100.00
5814;BME280;2933;52.302;8.134;2023-01-15T02:18:59;98651.31;;;5.02;100.00
5814;BME280;2933;52.302;8.134;2023-01-15T02:24:09;98681.34;;;5.17;100.00
5814;BME280;2933;52.302;8.134;2023-01-15T02:29:17;98709.94;;;5.29;100.00
5814;BME280;2933;52.302;8.134;2023-01-15T02:34:24;98646.97;;;5.03;100.00
5814;BME280;2933;52.302;8.134;2023-01-15T02:39:28;98682.06;;;5.20;100.00
5814;BME280;2933;52.302;8.134;2023-01-15T02:44:35;98655.16;;;4.96;100.00
5814;BME280;2933;52.302;8.134;2023-01-15T02:49:39;98682.28;;;5.16;100.00
5814;BME280;2933;52.302;8.134;2023-01-15T02:54:46;98683.00;;;5.18;100.00
5814;BME280;2933;52.302;8.134;2023-01-15T02:59:51;98684.66;;;5.20;100.00
5814;BME280;2933;52.302;8.134;2023-01-15T03:04:57;98658.66;;;4.95;100.00
5814;BME280;2933;52.302;8.134;2023-01-15T03:10:01;98674.19;;;5.08;100.00
5814;BME280;2933;52.302;8.134;2023-01-15T03:15:11;98679.81;;;5.15;100.00
5814;BME280;2933;52.302;8.134;2023-01-15T03:20:36;98669.44;;;5.15;100.00
5814;BME280;2933;52.302;8.134;2023-01-15T03:25:42;98671.63;;;5.21;100.00
5814;BME280;2933;52.302;8.134;2023-01-15T03:30:48;98662.31;;;5.18;100.00
5814;BME280;2933;52.302;8.134;2023-01-15T03:35:53;98638.47;;;5.13;100.00
5814;BME280;2933;52.302;8.134;2023-01-15T03:41:05;98645.00;;;5.19;100.00
5814;BME280;2933;52.302;8.134;2023-01-15T03:46:26;98620.34;;;5.13;100.00
5814;BME280;2933;52.302;8.134;2023-01-15T03:51:36;98584.03;;;4.89;100.00
5814;BME280;2933;52.302;8.134;2023-01-15T03:56:44;98628.97;;;5.14;100.00
5814;BME280;2933;52.302;8.134;2023-01-15T04:01:56;98609.41;;;4.97;100.00
5814;BME280;2933;52.302;8.134;2023-01-15T04:06:58;98632.47;;;5.13;100.00
5814;BME280;2933;52.302;8.134;2023-01-15T04:12:01;98637.97;;;5.08;100.00
5814;BME280;2933;52.302;8.134;2023-01-15T04:17:04;98654.53;;;5.18;100.00
5814;BME280;2933;52.302;8.134;2023-01-15T04:22:07;98639.81;;;5.19;100.00
5814;BME280;2933;52.302;8.134;2023-01-15T04:27:10;98595.22;;;4.90;100.00
5814;BME280;2933;52.302;8.134;2023-01-15T04:32:13;98625.22;;;5.18;100.00
5814;BME280;2933;52.302;8.134;2023-01-15T04:37:15;98614.66;;;5.08;100.00
5814;BME280;2933;52.302;8.134;2023-01-15T04:42:17;98625.94;;;5.07;100.00
5814;BME280;2933;52.302;8.134;2023-01-15T04:47:37;98630.63;;;5.15;100.00
5814;BME280;2933;52.302;8.134;2023-01-15T04:52:39;98644.28;;;5.17;100.00
5814;BME280;2933;52.302;8.134;2023-01-15T04:57:40;98624.31;;;5.06;100.00
5814;BME280;2933;52.302;8.134;2023-01-15T05:02:43;98635.06;;;5.13;100.00
5814;BME280;2933;52.302;8.134;2023-01-15T05:07:45;98651.31;;;5.15;100.00
5814;BME280;2933;52.302;8.134;2023-01-15T05:12:47;98648.00;;;5.13;100.00
5814;BME280;2933;52.302;8.134;2023-01-15T05:17:49;98647.91;;;5.14;100.00
5814;BME280;2933;52.302;8.134;2023-01-15T05:22:51;98646.75;;;5.06;100.00
5814;BME280;2933;52.302;8.134;2023-01-15T05:27:53;98642.63;;;5.03;100.00
5814;BME280;2933;52.302;8.134;2023-01-15T05:33:00;98639.72;;;5.08;100.00
5814;BME280;2933;52.302;8.134;2023-01-15T05:38:19;98642.91;;;4.98;100.00
5814;BME280;2933;52.302;8.134;2023-01-15T05:43:20;98647.41;;;4.96;100.00
5814;BME280;2933;52.302;8.134;2023-01-15T05:48:23;98638.28;;;5.04;100.00
5814;BME280;2933;52.302;8.134;2023-01-15T05:53:25;98644.28;;;5.04;100.00
5814;BME280;2933;52.302;8.134;2023-01-15T05:58:28;98649.88;;;4.98;100.00
5814;BME280;2933;52.302;8.134;2023-01-15T06:03:32;98622.13;;;4.87;100.00
5814;BME280;2933;52.302;8.134;2023-01-15T06:08:33;98634.47;;;4.96;100.00
5814;BME280;2933;52.302;8.134;2023-01-15T06:13:35;98652.28;;;5.01;100.00
5814;BME280;2933;52.302;8.134;2023-01-15T06:18:40;98649.34;;;5.06;100.00
5814;BME280;2933;52.302;8.134;2023-01-15T06:23:42;98636.09;;;4.84;100.00
5814;BME280;2933;52.302;8.134;2023-01-15T06:28:45;98643.53;;;5.02;100.00
5814;BME280;2933;52.302;8.134;2023-01-15T06:33:48;98627.22;;;4.89;100.00
5814;BME280;2933;52.302;8.134;2023-01-15T06:38:52;98618.72;;;4.87;100.00
5814;BME280;2933;52.302;8.134;2023-01-15T06:43:55;98604.66;;;4.78;100.00
5814;BME280;2933;52.302;8.134;2023-01-15T06:49:16;98606.59;;;4.87;100.00
5814;BME280;2933;52.302;8.134;2023-01-15T06:54:17;98587.06;;;4.83;100.00
5814;BME280;2933;52.302;8.134;2023-01-15T06:59:19;98615.84;;;4.91;100.00
5814;BME280;2933;52.302;8.134;2023-01-15T07:04:22;98645.84;;;5.07;100.00
5814;BME280;2933;52.302;8.134;2023-01-15T07:09:23;98636.19;;;4.96;100.00
5814;BME280;2933;52.302;8.134;2023-01-15T07:14:26;98646.75;;;5.06;100.00
5814;BME280;2933;52.302;8.134;2023-01-15T07:19:37;98646.34;;;4.99;100.00
5814;BME280;2933;52.302;8.134;2023-01-15T07:24:39;98643.34;;;5.05;100.00
5814;BME280;2933;52.302;8.134;2023-01-15T07:29:40;98629.16;;;4.98;100.00
5814;BME280;2933;52.302;8.134;2023-01-15T07:34:43;98630.94;;;5.10;100.00
5814;BME280;2933;52.302;8.134;2023-01-15T07:39:45;98629.91;;;5.00;100.00
5814;BME280;2933;52.302;8.134;2023-01-15T07:44:47;98641.59;;;5.06;100.00
5814;BME280;2933;52.302;8.134;2023-01-15T07:50:09;98646.34;;;5.12;100.00
5814;BME280;2933;52.302;8.134;2023-01-15T07:55:11;98618.19;;;4.94;100.00
5814;BME280;2933;52.302;8.134;2023-01-15T08:00:15;98643.25;;;5.07;100.00
5814;BME280;2933;52.302;8.134;2023-01-15T08:05:20;98645.63;;;5.10;100.00
5814;BME280;2933;52.302;8.134;2023-01-15T08:10:22;98661.75;;;5.13;100.00
5814;BME280;2933;52.302;8.134;2023-01-15T08:15:24;98659.59;;;5.07;100.00
5814;BME280;2933;52.302;8.134;2023-01-15T08:20:27;98657.63;;;4.98;100.00
5814;BME280;2933;52.302;8.134;2023-01-15T08:25:29;98640.84;;;4.91;100.00
5814;BME280;2933;52.302;8.134;2023-01-15T08:30:30;98630.50;;;4.78;100.00
5814;BME280;2933;52.302;8.134;2023-01-15T08:35:33;98658.56;;;4.97;100.00
5814;BME280;2933;52.302;8.134;2023-01-15T08:40:35;98660.56;;;5.06;99.92
5814;BME280;2933;52.302;8.134;2023-01-15T08:45:58;98644.59;;;4.99;98.91
5814;BME280;2933;52.302;8.134;2023-01-15T08:51:04;98662.91;;;5.09;98.13
5814;BME280;2933;52.302;8.134;2023-01-15T08:56:11;98660.44;;;5.08;96.64
5814;BME280;2933;52.302;8.134;2023-01-15T09:01:13;98645.72;;;4.95;96.98
5814;BME280;2933;52.302;8.134;2023-01-15T09:06:16;98675.84;;;5.09;96.72
5814;BME280;2933;52.302;8.134;2023-01-15T09:11:18;98668.09;;;5.09;96.85
5814;BME280;2933;52.302;8.134;2023-01-15T09:16:20;98665.72;;;5.06;96.91
5814;BME280;2933;52.302;8.134;2023-01-15T09:21:23;98647.06;;;4.88;96.20
5814;BME280;2933;52.302;8.134;2023-01-15T09:26:32;98679.69;;;5.04;95.01
5814;BME280;2933;52.302;8.134;2023-01-15T09:31:34;98693.56;;;5.15;95.68
5814;BME280;2933;52.302;8.134;2023-01-15T09:36:37;98682.69;;;5.23;94.83
5814;BME280;2933;52.302;8.134;2023-01-15T09:41:52;98682.50;;;5.26;93.48
5814;BME280;2933;52.302;8.134;2023-01-15T09:47:10;98660.53;;;5.19;93.71
5814;BME280;2933;52.302;8.134;2023-01-15T09:52:25;98682.16;;;5.44;92.18
5814;BME280;2933;52.302;8.134;2023-01-15T09:57:31;98684.13;;;5.40;89.67
5814;BME280;2933;52.302;8.134;2023-01-15T10:02:38;98693.56;;;5.41;87.64
5814;BME280;2933;52.302;8.134;2023-01-15T10:07:50;98676.25;;;5.42;87.38
5814;BME280;2933;52.302;8.134;2023-01-15T10:12:57;98677.59;;;5.47;86.43
5814;BME280;2933;52.302;8.134;2023-01-15T10:18:00;98662.16;;;5.59;86.55
5814;BME280;2933;52.302;8.134;2023-01-15T10:23:29;98685.25;;;5.49;84.90
5814;BME280;2933;52.302;8.134;2023-01-15T10:28:48;98676.88;;;5.58;83.62
5814;BME280;2933;52.302;8.134;2023-01-15T10:34:02;98701.66;;;5.49;84.16
5814;BME280;2933;52.302;8.134;2023-01-15T10:39:13;98674.78;;;5.50;81.69
5814;BME280;2933;52.302;8.134;2023-01-15T10:44:23;98672.19;;;5.63;81.03
5814;BME280;2933;52.302;8.134;2023-01-15T10:49:29;98676.94;;;5.70;81.67
5814;BME280;2933;52.302;8.134;2023-01-15T10:54:37;98682.56;;;5.63;80.18
5814;BME280;2933;52.302;8.134;2023-01-15T10:59:45;98650.53;;;5.64;81.01
5814;BME280;2933;52.302;8.134;2023-01-15T11:04:48;98613.34;;;5.53;80.70
5814;BME280;2933;52.302;8.134;2023-01-15T11:09:52;98671.97;;;5.66;80.74
5814;BME280;2933;52.302;8.134;2023-01-15T11:14:54;98674.66;;;5.65;82.01
5814;BME280;2933;52.302;8.134;2023-01-15T11:20:19;98669.50;;;5.65;81.05
5814;BME280;2933;52.302;8.134;2023-01-15T11:25:27;98668.75;;;5.63;81.38
5814;BME280;2933;52.302;8.134;2023-01-15T11:30:31;98686.28;;;5.59;79.86
5814;BME280;2933;52.302;8.134;2023-01-15T11:35:33;98677.56;;;5.73;81.46
5814;BME280;2933;52.302;8.134;2023-01-15T11:40:36;98655.53;;;5.55;81.22
5814;BME280;2933;52.302;8.134;2023-01-15T11:45:45;98656.44;;;5.66;81.00
5814;BME280;2933;52.302;8.134;2023-01-15T11:51:06;98670.41;;;5.64;81.86
5814;BME280;2933;52.302;8.134;2023-01-15T11:56:12;98672.91;;;5.65;81.11
5814;BME280;2933;52.302;8.134;2023-01-15T12:01:20;98662.03;;;5.73;81.15
5814;BME280;2933;52.302;8.134;2023-01-15T12:06:23;98662.72;;;5.75;81.67
5814;BME280;2933;52.302;8.134;2023-01-15T12:11:37;98655.88;;;5.74;81.52
5814;BME280;2933;52.302;8.134;2023-01-15T12:16:44;98667.28;;;5.72;81.49
5814;BME280;2933;52.302;8.134;2023-01-15T12:22:07;98658.47;;;5.74;81.76
5814;BME280;2933;52.302;8.134;2023-01-15T12:27:23;98663.75;;;5.73;82.19
5814;BME280;2933;52.302;8.134;2023-01-15T12:32:36;98660.75;;;5.79;81.69
5814;BME280;2933;52.302;8.134;2023-01-15T12:37:44;98645.69;;;5.84;80.84
5814;BME280;2933;52.302;8.134;2023-01-15T12:42:52;98643.09;;;5.84;81.42
5814;BME280;2933;52.302;8.134;2023-01-15T12:48:15;98648.78;;;5.89;81.63
5814;BME280;2933;52.302;8.134;2023-01-15T12:53:23;98619.16;;;5.93;81.34
5814;BME280;2933;52.302;8.134;2023-01-15T12:58:36;98636.56;;;5.91;80.94
5814;BME280;2933;52.302;8.134;2023-01-15T13:04:13;98626.19;;;5.91;82.85
5814;BME280;2933;52.302;8.134;2023-01-15T13:09:27;98649.75;;;5.88;82.03
5814;BME280;2933;52.302;8.134;2023-01-15T13:14:32;98648.19;;;5.48;91.66
5814;BME280;2933;52.302;8.134;2023-01-15T13:19:42;98645.91;;;5.44;93.86
5814;BME280;2933;52.302;8.134;2023-01-15T13:30:32;98608.44;;;5.74;87.62
5814;BME280;2933;52.302;8.134;2023-01-15T13:35:45;98612.69;;;5.75;88.71
5814;BME280;2933;52.302;8.134;2023-01-15T13:40:50;98610.63;;;5.67;86.66
5814;BME280;2933;52.302;8.134;2023-01-15T13:45:55;98619.09;;;5.69;87.46
5814;BME280;2933;52.302;8.134;2023-01-15T13:50:58;98628.09;;;5.76;86.53
5814;BME280;2933;52.302;8.134;2023-01-15T13:56:03;98630.16;;;5.84;85.24
5814;BME280;2933;52.302;8.134;2023-01-15T14:01:21;98640.94;;;5.91;85.71
5814;BME280;2933;52.302;8.134;2023-01-15T14:06:38;98660.81;;;5.90;85.31
5814;BME280;2933;52.302;8.134;2023-01-15T14:11:55;98648.84;;;5.76;86.11
5814;BME280;2933;52.302;8.134;2023-01-15T14:17:13;98632.84;;;5.58;86.22
5814;BME280;2933;52.302;8.134;2023-01-15T14:22:36;98668.84;;;5.74;87.72
5814;BME280;2933;52.302;8.134;2023-01-15T14:27:53;98656.72;;;5.75;86.75
5814;BME280;2933;52.302;8.134;2023-01-15T14:33:10;98692.38;;;5.71;88.85
5814;BME280;2933;52.302;8.134;2023-01-15T14:38:21;98687.84;;;5.49;92.78
5814;BME280;2933;52.302;8.134;2023-01-15T14:43:26;98688.28;;;5.30;95.89
5814;BME280;2933;52.302;8.134;2023-01-15T14:48:36;98689.09;;;5.30;93.96
5814;BME280;2933;52.302;8.134;2023-01-15T14:53:41;98709.50;;;5.48;93.04
5814;BME280;2933;52.302;8.134;2023-01-15T14:58:53;98698.09;;;5.50;91.71
5814;BME280;2933;52.302;8.134;2023-01-15T15:04:04;98711.78;;;5.53;92.48
5814;BME280;2933;52.302;8.134;2023-01-15T15:09:11;98701.22;;;5.43;92.63
5814;BME280;2933;52.302;8.134;2023-01-15T15:14:14;98733.13;;;5.30;95.47
5814;BME280;2933;52.302;8.134;2023-01-15T15:19:25;98730.66;;;5.29;97.19
5814;BME280;2933;52.302;8.134;2023-01-15T15:24:30;98738.00;;;5.22;95.31
5814;BME280;2933;52.302;8.134;2023-01-15T15:29:34;98703.09;;;5.15;93.66
5814;BME280;2933;52.302;8.134;2023-01-15T15:34:39;98719.88;;;5.22;92.05
5814;BME280;2933;52.302;8.134;2023-01-15T15:39:48;98728.88;;;5.29;92.24
5814;BME280;2933;52.302;8.134;2023-01-15T15:44:53;98734.38;;;5.25;94.00
5814;BME280;2933;52.302;8.134;2023-01-15T15:50:24;98746.06;;;5.17;97.31
5814;BME280;2933;52.302;8.134;2023-01-15T15:55:34;98757.53;;;5.13;98.48
5814;BME280;2933;52.302;8.134;2023-01-15T16:00:39;98747.69;;;5.06;98.32
5814;BME280;2933;52.302;8.134;2023-01-15T16:05:53;98773.47;;;5.07;99.09
5814;BME280;2933;52.302;8.134;2023-01-15T16:10:57;98772.31;;;4.98;99.71
5814;BME280;2933;52.302;8.134;2023-01-15T16:16:01;98767.06;;;5.00;100.00
5814;BME280;2933;52.302;8.134;2023-01-15T16:21:05;98741.78;;;4.91;99.50
5814;BME280;2933;52.302;8.134;2023-01-15T16:26:11;98790.34;;;5.00;100.00
5814;BME280;2933;52.302;8.134;2023-01-15T16:31:16;98784.03;;;4.91;100.00
5814;BME280;2933;52.302;8.134;2023-01-15T16:36:20;98775.53;;;4.89;100.00
5814;BME280;2933;52.302;8.134;2023-01-15T16:41:24;98792.81;;;4.89;100.00
5814;BME280;2933;52.302;8.134;2023-01-15T16:46:29;98780.16;;;4.84;100.00
5814;BME280;2933;52.302;8.134;2023-01-15T16:51:34;98797.13;;;4.88;100.00
5814;BME280;2933;52.302;8.134;2023-01-15T16:56:49;98795.78;;;4.82;100.00
5814;BME280;2933;52.302;8.134;2023-01-15T17:01:51;98802.81;;;4.80;100.00
5814;BME280;2933;52.302;8.134;2023-01-15T17:06:59;98805.06;;;4.72;100.00
5814;BME280;2933;52.302;8.134;2023-01-15T17:12:05;98816.03;;;4.76;100.00
5814;BME280;2933;52.302;8.134;2023-01-15T17:17:15;98827.44;;;4.59;100.00
5814;BME280;2933;52.302;8.134;2023-01-15T17:22:23;98830.63;;;4.49;100.00
5814;BME280;2933;52.302;8.134;2023-01-15T17:27:26;98821.41;;;4.45;100.00
5814;BME280;2933;52.302;8.134;2023-01-15T17:32:29;98823.13;;;4.45;100.00
5814;BME280;2933;52.302;8.134;2023-01-15T17:37:33;98827.66;;;4.41;100.00
5814;BME280;2933;52.302;8.134;2023-01-15T17:42:34;98826.66;;;4.44;100.00
5814;BME280;2933;52.302;8.134;2023-01-15T17:47:36;98820.88;;;4.40;100.00
5814;BME280;2933;52.302;8.134;2023-01-15T17:52:39;98836.53;;;4.37;100.00
5814;BME280;2933;52.302;8.134;2023-01-15T17:57:41;98846.03;;;4.51;100.00
5814;BME280;2933;52.302;8.134;2023-01-15T18:03:01;98859.44;;;4.43;100.00
5814;BME280;2933;52.302;8.134;2023-01-15T18:08:21;98863.69;;;4.30;100.00
5814;BME280;2933;52.302;8.134;2023-01-15T18:13:23;98852.25;;;4.34;100.00
5814;BME280;2933;52.302;8.134;2023-01-15T18:18:24;98850.00;;;4.42;100.00
5814;BME280;2933;52.302;8.134;2023-01-15T18:23:27;98852.75;;;4.53;100.00
5814;BME280;2933;52.302;8.134;2023-01-15T18:28:29;98847.75;;;4.65;100.00
5814;BME280;2933;52.302;8.134;2023-01-15T18:33:31;98851.81;;;4.69;100.00
5814;BME280;2933;52.302;8.134;2023-01-15T18:38:35;98861.69;;;4.77;100.00
5814;BME280;2933;52.302;8.134;2023-01-15T18:43:37;98876.88;;;4.54;100.00
5814;BME280;2933;52.302;8.134;2023-01-15T18:48:56;98840.25;;;4.33;100.00
5814;BME280;2933;52.302;8.134;2023-01-15T18:53:59;98867.19;;;4.43;100.00
5814;BME280;2933;52.302;8.134;2023-01-15T18:59:01;98862.66;;;4.47;100.00
5814;BME280;2933;52.302;8.134;2023-01-15T19:04:02;98881.31;;;4.52;100.00
5814;BME280;2933;52.302;8.134;2023-01-15T19:09:07;98878.44;;;4.57;100.00
5814;BME280;2933;52.302;8.134;2023-01-15T19:14:09;98874.84;;;4.59;100.00
5814;BME280;2933;52.302;8.134;2023-01-15T19:19:29;98879.81;;;4.62;100.00
5814;BME280;2933;52.302;8.134;2023-01-15T19:24:31;98890.53;;;4.71;100.00
5814;BME280;2933;52.302;8.134;2023-01-15T19:29:33;98888.38;;;4.77;100.00
5814;BME280;2933;52.302;8.134;2023-01-15T19:34:35;98890.72;;;4.67;100.00
5814;BME280;2933;52.302;8.134;2023-01-15T19:39:38;98862.78;;;4.45;100.00
5814;BME280;2933;52.302;8.134;2023-01-15T19:44:39;98896.72;;;4.53;100.00
5814;BME280;2933;52.302;8.134;2023-01-15T19:49:55;98906.53;;;4.48;100.00
5814;BME280;2933;52.302;8.134;2023-01-15T19:55:16;98905.81;;;4.46;100.00
5814;BME280;2933;52.302;8.134;2023-01-15T20:00:19;98884.38;;;4.44;100.00
5814;BME280;2933;52.302;8.134;2023-01-15T20:05:22;98887.50;;;4.49;100.00
5814;BME280;2933;52.302;8.134;2023-01-15T20:10:27;98881.75;;;4.59;100.00
5814;BME280;2933;52.302;8.134;2023-01-15T20:15:29;98882.59;;;4.59;100.00
5814;BME280;2933;52.302;8.134;2023-01-15T20:20:31;98882.31;;;4.64;100.00
5814;BME280;2933;52.302;8.134;2023-01-15T20:25:35;98867.72;;;4.63;100.00
5814;BME280;2933;52.302;8.134;2023-01-15T20:30:36;98884.91;;;4.64;100.00
5814;BME280;2933;52.302;8.134;2023-01-15T20:35:40;98836.91;;;4.45;100.00
5814;BME280;2933;52.302;8.134;2023-01-15T20:40:43;98878.34;;;4.73;100.00
5814;BME280;2933;52.302;8.134;2023-01-15T20:45:44;98869.81;;;4.71;100.00
5814;BME280;2933;52.302;8.134;2023-01-15T20:50:47;98863.19;;;4.66;100.00
5814;BME280;2933;52.302;8.134;2023-01-15T20:56:02;98867.09;;;4.59;100.00
5814;BME280;2933;52.302;8.134;2023-01-15T21:01:05;98870.84;;;4.68;100.00
5814;BME280;2933;52.302;8.134;2023-01-15T21:06:09;98857.38;;;4.63;99.64
5814;BME280;2933;52.302;8.134;2023-01-15T21:11:12;98822.13;;;4.47;99.52
5814;BME280;2933;52.302;8.134;2023-01-15T21:16:14;98853.19;;;4.75;98.81
5814;BME280;2933;52.302;8.134;2023-01-15T21:21:17;98847.53;;;4.82;98.73
5814;BME280;2933;52.302;8.134;2023-01-15T21:26:22;98835.19;;;4.59;97.13
5814;BME280;2933;52.302;8.134;2023-01-15T21:31:24;98841.53;;;4.82;96.92
5814;BME280;2933;52.302;8.134;2023-01-15T21:36:28;98816.03;;;4.76;96.72
5814;BME280;2933;52.302;8.134;2023-01-15T21:41:31;98833.38;;;4.88;97.85
5814;BME280;2933;52.302;8.134;2023-01-15T21:46:50;98814.28;;;4.76;99.00
5814;BME280;2933;52.302;8.134;2023-01-15T21:51:52;98814.44;;;4.88;98.94
5814;BME280;2933;52.302;8.134;2023-01-15T21:56:55;98807.31;;;4.91;98.77
5814;BME280;2933;52.302;8.134;2023-01-15T22:01:57;98811.31;;;4.82;100.00
5814;BME280;2933;52.302;8.134;2023-01-15T22:06:59;98814.28;;;4.76;99.91
5814;BME280;2933;52.302;8.134;2023-01-15T22:12:02;98812.88;;;4.85;100.00
5814;BME280;2933;52.302;8.134;2023-01-15T22:17:04;98805.28;;;4.82;100.00
5814;BME280;2933;52.302;8.134;2023-01-15T22:22:08;98796.41;;;4.86;100.00
5814;BME280;2933;52.302;8.134;2023-01-15T22:27:13;98787.94;;;4.84;100.00
5814;BME280;2933;52.302;8.134;2023-01-15T22:32:15;98743.03;;;4.58;100.00
5814;BME280;2933;52.302;8.134;2023-01-15T22:37:17;98776.66;;;4.85;100.00
5814;BME280;2933;52.302;8.134;2023-01-15T22:42:19;98763.16;;;4.80;100.00
5814;BME280;2933;52.302;8.134;2023-01-15T22:47:28;98756.53;;;4.76;100.00
5814;BME280;2933;52.302;8.134;2023-01-15T22:52:30;98758.31;;;4.75;100.00
5814;BME280;2933;52.302;8.134;2023-01-15T22:57:33;98743.69;;;4.61;100.00
5814;BME280;2933;52.302;8.134;2023-01-15T23:02:35;98743.81;;;4.73;100.00
5814;BME280;2933;52.302;8.134;2023-01-15T23:07:55;98744.44;;;4.76;100.00
5814;BME280;2933;52.302;8.134;2023-01-15T23:12:58;98738.44;;;4.76;100.00
5814;BME280;2933;52.302;8.134;2023-01-15T23:17:59;98724.56;;;4.77;100.00
5814;BME280;2933;52.302;8.134;2023-01-15T23:23:01;98729.31;;;4.70;100.00
5814;BME280;2933;52.302;8.134;2023-01-15T23:28:04;98718.53;;;4.63;100.00
5814;BME280;2933;52.302;8.134;2023-01-15T23:33:05;98707.56;;;4.60;100.00
5814;BME280;2933;52.302;8.134;2023-01-15T23:38:07;98708.47;;;4.59;100.00
5814;BME280;2933;52.302;8.134;2023-01-15T23:43:11;98690.59;;;4.56;100.00
5814;BME280;2933;52.302;8.134;2023-01-15T23:48:30;98691.41;;;4.56;100.00
5814;BME280;2933;52.302;8.134;2023-01-15T23:53:32;98693.06;;;4.57;100.00
5814;BME280;2933;52.302;8.134;2023-01-15T23:58:35;98689.81;;;4.41;100.00
